createdAt,value
2018-12-22T00:00:58.215Z,11.34
2018-12-22T00:06:02.831Z,11.40
2018-12-22T00:11:07.120Z,11.41
2018-12-22T00:16:11.488Z,11.35
2018-12-22T00:21:15.890Z,11.30
2018-12-22T00:26:20.291Z,11.34
2018-12-22T00:31:25.209Z,11.37
2018-12-22T00:36:32.182Z,11.33
2018-12-22T00:41:36.589Z,11.24
2018-12-22T00:46:40.844Z,11.36
2018-12-22T00:51:45.220Z,11.43
2018-12-22T00:56:49.606Z,11.47
2018-12-22T01:01:54.106Z,11.56
2018-12-22T01:06:58.685Z,11.58
2018-12-22T01:12:02.972Z,11.57
2018-12-22T01:17:07.174Z,11.52
2018-12-22T01:22:11.572Z,11.55
2018-12-22T01:27:15.936Z,11.57
2018-12-22T01:32:20.441Z,11.61
2018-12-22T01:37:24.903Z,11.59
2018-12-22T01:42:30.149Z,11.58
2018-12-22T01:47:34.996Z,11.55
2018-12-22T01:52:39.388Z,11.52
2018-12-22T01:57:43.648Z,11.47
2018-12-22T02:02:47.783Z,11.31
2018-12-22T02:07:52.226Z,11.20
2018-12-22T02:12:56.492Z,11.03
2018-12-22T02:18:00.729Z,10.87
2018-12-22T02:23:05.145Z,10.83
2018-12-22T02:28:09.333Z,10.81
2018-12-22T02:33:14.284Z,10.78
2018-12-22T02:38:19.261Z,10.74
2018-12-22T02:43:23.373Z,10.73
2018-12-22T02:48:28.293Z,10.62
2018-12-22T02:53:33.392Z,10.55
2018-12-22T02:58:37.819Z,10.54
2018-12-22T03:03:42.334Z,10.52
2018-12-22T03:08:46.802Z,10.45
2018-12-22T03:13:51.730Z,10.40
2018-12-22T03:18:55.900Z,10.35
2018-12-22T03:24:00.092Z,10.21
2018-12-22T03:29:04.472Z,10.09
2018-12-22T03:34:08.727Z,9.96
2018-12-22T03:39:12.944Z,9.90
2018-12-22T03:44:17.272Z,9.81
2018-12-22T03:49:22.535Z,9.73
2018-12-22T03:54:26.747Z,9.70
2018-12-22T03:59:31.074Z,9.75
2018-12-22T04:04:35.347Z,9.80
2018-12-22T04:09:39.678Z,9.82
2018-12-22T04:14:43.946Z,9.86
2018-12-22T04:19:48.274Z,9.80
2018-12-22T04:24:54.353Z,9.79
2018-12-22T04:29:58.629Z,9.72
2018-12-22T04:35:02.929Z,9.68
2018-12-22T04:40:07.123Z,9.64
2018-12-22T04:45:12.268Z,9.59
2018-12-22T04:50:20.721Z,9.55
2018-12-22T04:55:25.035Z,9.47
2018-12-22T05:00:29.211Z,9.49
2018-12-22T05:05:33.452Z,9.43
2018-12-22T05:10:37.638Z,9.45
2018-12-22T05:15:41.760Z,9.52
2018-12-22T05:20:46.161Z,9.53
2018-12-22T05:25:50.421Z,9.51
2018-12-22T05:30:55.009Z,9.55
2018-12-22T05:36:01.195Z,9.57
2018-12-22T05:41:08.802Z,9.58
2018-12-22T05:46:31.975Z,9.54
2018-12-22T05:51:37.184Z,9.58
2018-12-22T05:56:41.358Z,9.54
2018-12-22T06:01:45.730Z,9.60
2018-12-22T06:06:50.420Z,9.59
2018-12-22T06:11:54.877Z,9.49
2018-12-22T06:17:00.239Z,9.48
2018-12-22T06:22:04.593Z,9.49
2018-12-22T06:27:08.832Z,9.53
2018-12-22T06:32:13.253Z,9.50
2018-12-22T06:37:17.628Z,9.49
2018-12-22T06:42:22.023Z,9.41
2018-12-22T06:47:26.229Z,9.34
2018-12-22T06:52:30.667Z,9.30
2018-12-22T06:57:35.129Z,9.26
2018-12-22T07:02:39.737Z,9.26
2018-12-22T07:07:43.849Z,9.34
2018-12-22T07:12:48.297Z,9.30
2018-12-22T07:17:52.563Z,9.43
2018-12-22T07:22:57.217Z,9.53
2018-12-22T07:28:01.557Z,9.69
2018-12-22T07:33:05.861Z,9.75
2018-12-22T07:38:10.436Z,9.74
2018-12-22T07:43:14.687Z,9.69
2018-12-22T07:48:19.116Z,9.58
2018-12-22T07:53:24.657Z,9.51
2018-12-22T07:58:29.268Z,9.41
2018-12-22T08:03:33.662Z,9.27
2018-12-22T08:08:38.203Z,9.23
2018-12-22T08:13:42.400Z,9.19
2018-12-22T08:18:46.678Z,9.21
2018-12-22T08:23:50.923Z,9.13
2018-12-22T08:28:55.455Z,9.10
2018-12-22T08:33:59.755Z,9.21
2018-12-22T08:39:05.742Z,9.20
2018-12-22T08:44:10.443Z,9.18
2018-12-22T08:49:14.787Z,9.11
2018-12-22T08:54:18.981Z,9.18
2018-12-22T08:59:23.493Z,9.12
2018-12-22T09:04:27.828Z,9.09
2018-12-22T09:09:32.550Z,9.08
2018-12-22T09:14:36.804Z,9.10
2018-12-22T09:19:41.860Z,9.09
2018-12-22T09:24:46.938Z,9.13
2018-12-22T09:29:52.604Z,9.17
2018-12-22T09:34:57.038Z,9.23
2018-12-22T09:40:01.432Z,9.20
2018-12-22T09:45:07.090Z,9.24
2018-12-22T09:50:12.824Z,9.10
2018-12-22T09:55:17.543Z,9.03
2018-12-22T10:00:22.194Z,8.91
2018-12-22T10:05:26.755Z,8.88
2018-12-22T10:10:31.207Z,8.87
2018-12-22T10:15:36.498Z,8.84
2018-12-22T10:20:41.072Z,8.82
2018-12-22T10:25:54.710Z,8.75
2018-12-22T10:31:00.042Z,8.66
2018-12-22T10:36:04.492Z,8.63
2018-12-22T10:41:08.778Z,8.56
2018-12-22T10:46:13.561Z,8.51
2018-12-22T10:51:24.293Z,8.39
2018-12-22T10:56:24.429Z,8.41
2018-12-22T11:01:28.918Z,8.47
2018-12-22T11:06:33.706Z,8.39
2018-12-22T11:11:38.117Z,8.30
2018-12-22T11:16:42.793Z,8.39
2018-12-22T11:21:47.118Z,8.59
2018-12-22T11:26:51.337Z,8.61
2018-12-22T11:31:55.543Z,8.58
2018-12-22T11:36:59.911Z,8.48
2018-12-22T11:42:04.323Z,8.40
2018-12-22T11:47:19.086Z,8.37
2018-12-22T11:52:23.609Z,8.27
2018-12-22T11:57:27.781Z,8.26
2018-12-22T12:02:32.089Z,8.23
2018-12-22T12:07:36.553Z,8.18
2018-12-22T12:12:40.899Z,8.17
2018-12-22T12:18:14.418Z,8.12
2018-12-22T12:23:18.661Z,8.05
2018-12-22T12:28:23.009Z,7.97
2018-12-22T12:33:27.349Z,7.87
2018-12-22T12:38:31.989Z,7.91
2018-12-22T12:43:36.189Z,7.85
2018-12-22T12:48:40.431Z,7.85
2018-12-22T12:53:45.157Z,7.86
2018-12-22T12:58:50.301Z,7.87
2018-12-22T13:03:54.626Z,7.85
2018-12-22T13:08:58.826Z,7.81
2018-12-22T13:14:11.341Z,7.79
2018-12-22T13:19:16.951Z,7.77
2018-12-22T13:24:26.386Z,7.86
2018-12-22T13:29:31.014Z,7.85
2018-12-22T13:34:35.574Z,7.80
2018-12-22T13:39:40.733Z,7.75
2018-12-22T13:44:45.704Z,7.66
2018-12-22T13:49:50.769Z,7.64
2018-12-22T13:54:55.342Z,7.76
2018-12-22T13:59:59.778Z,7.78
2018-12-22T14:05:05.258Z,7.70
2018-12-22T14:10:11.114Z,7.68
2018-12-22T14:15:18.473Z,7.62
2018-12-22T14:20:24.043Z,7.60
2018-12-22T14:25:30.187Z,7.64
2018-12-22T14:30:34.844Z,7.63
2018-12-22T14:35:44.881Z,7.56
2018-12-22T14:40:50.479Z,7.56
2018-12-22T14:45:55.484Z,7.52
2018-12-22T14:50:59.833Z,7.55
2018-12-22T14:56:05.180Z,7.48
2018-12-22T15:01:11.143Z,7.52
2018-12-22T15:06:21.559Z,7.49
2018-12-22T15:11:26.642Z,7.50
2018-12-22T15:16:34.937Z,7.49
2018-12-22T15:21:39.468Z,7.47
2018-12-22T15:26:44.107Z,7.50
2018-12-22T15:31:48.721Z,7.50
2018-12-22T15:36:53.527Z,7.64
2018-12-22T15:42:00.027Z,7.67
2018-12-22T15:47:06.984Z,7.62
2018-12-22T15:52:15.345Z,7.58
2018-12-22T15:57:23.635Z,7.58
2018-12-22T16:02:37.139Z,7.63
2018-12-22T16:07:42.501Z,7.61
2018-12-22T16:13:06.757Z,7.63
2018-12-22T16:18:12.821Z,7.60
2018-12-22T16:23:18.933Z,7.62
2018-12-22T16:28:27.579Z,7.64
2018-12-22T16:33:52.808Z,7.65
2018-12-22T16:39:00.357Z,7.69
2018-12-22T16:44:07.591Z,7.74
2018-12-22T16:49:19.255Z,7.75
2018-12-22T16:54:33.503Z,7.74
2018-12-22T16:59:38.143Z,7.65
2018-12-22T17:04:44.873Z,7.64
2018-12-22T17:09:50.186Z,7.60
2018-12-22T17:14:55.075Z,7.54
2018-12-22T17:19:59.813Z,7.50
2018-12-22T17:25:15.401Z,7.57
2018-12-22T17:30:20.573Z,7.57
2018-12-22T17:35:25.179Z,7.66
2018-12-22T17:40:33.931Z,7.67
2018-12-22T17:45:49.117Z,7.69
2018-12-22T17:56:18.040Z,7.95
2018-12-22T18:01:22.590Z,8.03
2018-12-22T18:06:29.506Z,8.18
2018-12-22T18:17:01.766Z,8.25
2018-12-22T18:22:09.934Z,8.18
2018-12-22T18:27:15.710Z,8.28
2018-12-22T18:32:21.376Z,8.21
2018-12-22T18:37:26.100Z,8.24
2018-12-22T18:42:37.158Z,8.29
2018-12-22T18:47:43.844Z,8.37
2018-12-22T18:52:48.548Z,8.45
2018-12-22T18:58:01.162Z,8.41
2018-12-22T19:03:07.580Z,8.46
2018-12-22T19:08:14.760Z,8.45
2018-12-22T19:13:22.345Z,8.49
2018-12-22T19:18:30.261Z,8.40
2018-12-22T19:23:35.528Z,8.40
2018-12-22T19:28:39.931Z,8.45
2018-12-22T19:33:53.308Z,8.45
2018-12-22T19:38:56.038Z,8.43
2018-12-22T19:44:03.283Z,8.47
2018-12-22T19:49:11.918Z,8.52
2018-12-22T19:54:23.073Z,8.49
2018-12-22T19:59:28.484Z,8.45
2018-12-22T20:04:33.301Z,8.41
2018-12-22T20:09:37.901Z,8.39
2018-12-22T20:14:42.657Z,8.40
2018-12-22T20:19:47.947Z,8.37
2018-12-22T20:24:53.680Z,8.22
2018-12-22T20:29:59.173Z,8.19
2018-12-22T20:35:03.793Z,8.17
2018-12-22T20:40:08.835Z,8.25
2018-12-22T20:45:14.459Z,8.24
2018-12-22T20:50:18.997Z,8.20
2018-12-22T20:55:23.537Z,8.23
2018-12-22T21:00:28.105Z,8.30
2018-12-22T21:05:33.066Z,8.28
2018-12-22T21:10:38.459Z,8.35
2018-12-22T21:15:43.206Z,8.35
2018-12-22T21:20:48.131Z,8.31
2018-12-22T21:25:53.407Z,8.37
2018-12-22T21:30:58.015Z,8.39
2018-12-22T21:36:02.510Z,8.39
2018-12-22T21:41:07.505Z,8.43
2018-12-22T21:46:13.424Z,8.41
2018-12-22T21:51:22.789Z,8.41
2018-12-22T21:56:30.129Z,8.41
2018-12-22T22:01:38.292Z,8.40
2018-12-22T22:17:43.520Z,8.39
2018-12-22T22:22:48.157Z,8.38
2018-12-22T22:27:53.902Z,8.37
2018-12-22T22:32:59.780Z,8.44
2018-12-22T22:38:04.176Z,8.57
2018-12-22T22:43:08.678Z,8.62
2018-12-22T22:48:13.461Z,8.61
2018-12-22T22:53:20.974Z,8.62
2018-12-22T22:58:25.282Z,8.61
2018-12-22T23:03:30.459Z,8.59
2018-12-22T23:14:03.113Z,8.53
2018-12-22T23:19:08.021Z,8.58
2018-12-22T23:24:12.739Z,8.55
2018-12-22T23:50:10.849Z,8.47
2018-12-22T23:55:20.146Z,8.45
